Terminal Aerodrome Forecast
Issued by NWS

Current Version | Previous Version | Text Only | Print | Product List | Glossary On
Versions: 1 2 3 4 5 6 7 8 9 10 11 12 13
000
FTUS42 TJSJ 010547
TAFJBQ
TAF
TJBQ 010547Z 0106/0206 11005KT P6SM VCSH FEW025
     FM011200 08010KT P6SM VCSH SCT025 BKN050
     FM011630 07015G25KT P6SM VCTS SCT025CB BKN050
      TEMPO 0117/0121 VRB12G20KT 4SM TSRA BKN020CB OVC030
     FM012300 09008KT P6SM VCSH SCT025 BKN050 BKN120
      AMD NOT SKED TIL 011100=

USA.gov is the U.S. government's official web portal to all federal, state and local government web resources and services.